Stations météo

réclame
Mon MeteoGroup
Bealach, Grande-Bretagne (3039): Température de l'air & dewpoint: 02.08.2020 21:00:00 - 08.08.2020 21:00:00 (BST)Bealach, Grande-Bretagne (3039): Vitesse du vent & gusts: 02.08.2020 21:00:00 - 08.08.2020 21:00:00 (BST)Bealach, Grande-Bretagne (3039): Direction du vent: 02.08.2020 21:00:00 - 08.08.2020 21:00:00 (BST)
Date & Time tt [°C] td [°C] ff [km/h] ff [knt] fx [km/h] fx [knt] dd
08.08.2020 21:00:00 10,9 -0,6 2 1 - - E
08.08.2020 20:00:00 12,0 -2,8 4 2 - - SSE
08.08.2020 19:00:00 12,1 1,0 8 4 - - SSE
08.08.2020 18:00:00 11,9 2,0 8 4 - - SE
08.08.2020 17:00:00 11,6 4,1 11 6 - - S
08.08.2020 16:00:00 11,3 5,6 9 5 - - SSE
08.08.2020 15:00:00 10,5 5,6 13 7 - - SSW
08.08.2020 14:00:00 9,7 4,9 13 7 - - SSW
08.08.2020 13:00:00 9,7 5,2 11 6 - - SSW
08.08.2020 12:00:00 8,7 7,5 18 10 - - SW
08.08.2020 11:00:00 8,1 7,4 24 13 - - SW
08.08.2020 10:00:00 7,6 7,1 22 12 - - SSW
08.08.2020 09:00:00 7,2 6,8 28 15 - - SW
08.08.2020 08:00:00 7,1 7,1 24 13 - - SSW
08.08.2020 07:00:00 7,0 6,9 28 15 - - SW
08.08.2020 06:00:00 7,2 7,2 26 14 - - SW
08.08.2020 05:00:00 7,7 7,7 31 17 - - SW
08.08.2020 04:00:00 7,6 7,6 26 14 - - SW
08.08.2020 03:00:00 7,5 7,5 29 16 - - SSW
08.08.2020 02:00:00 7,0 7,0 22 12 - - SSW
08.08.2020 01:00:00 7,0 7,0 22 12 - - SSW
08.08.2020 00:00:00 7,0 7,0 16 9 - - SSW
07.08.2020 23:00:00 7,1 7,1 18 10 - - WSW
07.08.2020 22:00:00 7,1 7,1 16 9 - - W
07.08.2020 21:00:00 7,6 7,6 21 11 - - W
07.08.2020 20:00:00 8,2 8,2 21 11 - - W
07.08.2020 19:00:00 8,5 8,4 24 13 - - W
07.08.2020 18:00:00 8,7 8,7 26 14 - - W
07.08.2020 17:00:00 10,7 10,6 29 16 72 39 WSW
07.08.2020 16:00:00 11,4 11,4 50 27 72 39 SSW
07.08.2020 15:00:00 11,5 11,4 31 17 57 31 S
07.08.2020 14:00:00 11,3 11,3 29 16 61 33 S
07.08.2020 13:00:00 11,9 10,7 29 16 78 42 S
07.08.2020 12:00:00 12,3 9,9 42 23 74 40 SSE
07.08.2020 11:00:00 12,0 10,5 28 15 67 36 SSE
07.08.2020 10:00:00 11,5 11,5 28 15 67 36 SSE
07.08.2020 09:00:00 11,5 11,5 18 10 65 35 S
07.08.2020 08:00:00 11,6 11,6 22 12 54 29 S
07.08.2020 07:00:00 11,3 11,3 29 16 72 39 S
07.08.2020 06:00:00 11,8 11,8 39 21 68 37 S
07.08.2020 05:00:00 11,9 11,8 44 24 67 36 S
07.08.2020 04:00:00 11,8 11,8 35 19 61 33 S
07.08.2020 03:00:00 11,8 11,8 46 25 65 35 S
07.08.2020 02:00:00 11,8 11,8 44 24 57 31 S
07.08.2020 01:00:00 11,5 11,4 41 22 57 31 S
07.08.2020 00:00:00 11,9 10,9 24 13 46 25 SSE
06.08.2020 23:00:00 12,2 10,7 34 18 52 28 S
06.08.2020 22:00:00 12,5 10,3 34 18 70 38 SSE
06.08.2020 21:00:00 12,2 10,9 29 16 72 39 S
06.08.2020 20:00:00 12,0 11,8 48 26 67 36 S
06.08.2020 19:00:00 13,6 9,8 39 21 54 29 S
06.08.2020 18:00:00 14,5 9,2 29 16 54 29 S
06.08.2020 17:00:00 14,7 9,9 31 17 - - SSW
06.08.2020 16:00:00 15,9 7,3 9 5 - - SE
06.08.2020 15:00:00 14,8 6,7 15 8 - - ESE
06.08.2020 14:00:00 13,7 8,2 11 6 - - ESE
06.08.2020 13:00:00 12,4 12,2 15 8 - - SE
06.08.2020 12:00:00 10,9 10,7 18 10 - - SE
06.08.2020 11:00:00 9,8 9,8 22 12 48 26 SSE
06.08.2020 10:00:00 8,5 8,5 41 22 54 29 S
06.08.2020 09:00:00 8,1 8,1 31 17 55 30 S
06.08.2020 08:00:00 7,8 7,8 26 14 50 27 SSE
06.08.2020 07:00:00 7,5 7,5 34 18 50 27 SSE
06.08.2020 06:00:00 7,6 7,6 31 17 46 25 SSE
06.08.2020 05:00:00 7,7 7,7 31 17 48 26 S
06.08.2020 04:00:00 7,8 7,8 35 19 - - S
06.08.2020 03:00:00 8,1 8,1 31 17 - - S
06.08.2020 02:00:00 8,2 8,2 28 15 - - SSW
06.08.2020 01:00:00 8,2 8,1 22 12 - - SSW
06.08.2020 00:00:00 8,2 8,2 31 17 - - SW
05.08.2020 23:00:00 8,8 8,7 37 20 - - SSW
05.08.2020 22:00:00 8,6 8,6 31 17 - - SSW
05.08.2020 21:00:00 8,7 8,7 28 15 50 27 SW
05.08.2020 20:00:00 9,0 9,0 39 21 50 27 SSW
05.08.2020 19:00:00 9,3 9,3 42 23 50 27 SSW
05.08.2020 18:00:00 9,2 9,1 42 23 52 28 SSW
05.08.2020 17:00:00 9,3 9,2 46 25 55 30 SSW
05.08.2020 16:00:00 9,4 9,4 34 18 63 34 SSW
05.08.2020 15:00:00 9,1 9,0 55 30 65 35 SSW
05.08.2020 14:00:00 9,1 9,1 48 26 67 36 SSW
05.08.2020 13:00:00 9,1 9,1 52 28 68 37 SSW
05.08.2020 12:00:00 9,2 9,2 50 27 63 34 SSW
05.08.2020 11:00:00 9,1 9,1 46 25 70 38 SSW
05.08.2020 10:00:00 9,2 9,2 54 29 72 39 SSW
05.08.2020 09:00:00 9,4 9,3 52 28 68 37 SSW
05.08.2020 08:00:00 9,4 9,4 54 29 67 36 SSW
05.08.2020 07:00:00 9,4 9,4 55 30 65 35 SSW
05.08.2020 06:00:00 9,5 9,5 50 27 65 35 SSW
05.08.2020 05:00:00 9,6 9,6 50 27 63 34 SSW
05.08.2020 04:00:00 9,6 9,6 48 26 65 35 SSW
05.08.2020 03:00:00 9,6 9,6 44 24 55 30 SSW
05.08.2020 02:00:00 9,7 9,7 44 24 54 29 SSW
05.08.2020 01:00:00 9,7 9,7 52 28 67 36 SW
05.08.2020 00:00:00 9,8 9,8 52 28 68 37 SSW
04.08.2020 23:00:00 10,3 10,2 52 28 67 36 SSW
04.08.2020 22:00:00 10,5 10,5 50 27 65 35 SW
04.08.2020 21:00:00 10,6 10,6 54 29 78 42 SSW
04.08.2020 20:00:00 10,7 10,7 61 33 83 45 SSW
04.08.2020 19:00:00 10,7 10,7 67 36 91 49 SSW
04.08.2020 18:00:00 10,8 10,8 76 41 93 50 SSW
04.08.2020 17:00:00 10,9 10,9 74 40 91 49 SSW
04.08.2020 16:00:00 10,9 10,9 65 35 91 49 S
04.08.2020 15:00:00 10,4 10,4 37 20 61 33 S
04.08.2020 14:00:00 9,8 9,8 29 16 72 39 S
04.08.2020 13:00:00 9,2 9,2 41 22 78 42 S
04.08.2020 12:00:00 8,5 8,5 42 23 67 36 SSE
04.08.2020 11:00:00 7,8 7,7 42 23 67 36 SSE
04.08.2020 10:00:00 6,8 6,8 44 24 61 33 SSE
04.08.2020 09:00:00 6,4 6,4 29 16 65 35 SSE
04.08.2020 08:00:00 6,2 6,2 46 25 63 34 SSE
04.08.2020 07:00:00 6,1 6,1 42 23 81 44 SSE
04.08.2020 06:00:00 6,5 5,8 41 22 76 41 S
04.08.2020 05:00:00 6,4 6,2 31 17 67 36 SSE
04.08.2020 04:00:00 6,4 6,4 55 30 72 39 S
04.08.2020 03:00:00 6,6 6,5 44 24 70 38 S
04.08.2020 02:00:00 6,4 6,4 34 18 65 35 S
04.08.2020 01:00:00 6,3 6,3 54 29 70 38 SSW
04.08.2020 00:00:00 6,9 6,8 48 26 67 36 SSW
03.08.2020 23:00:00 6,4 6,4 42 23 54 29 SSW
03.08.2020 22:00:00 6,8 6,8 35 19 50 27 SSW
03.08.2020 21:00:00 6,5 6,5 21 11 - - SW
03.08.2020 20:00:00 6,6 6,5 26 14 - - SW
03.08.2020 19:00:00 6,5 6,2 21 11 - - WSW
03.08.2020 18:00:00 6,4 5,9 28 15 48 26 WSW
03.08.2020 17:00:00 6,4 6,1 35 19 46 25 WSW
03.08.2020 16:00:00 7,8 4,1 35 19 46 25 WSW
03.08.2020 15:00:00 7,5 4,1 35 19 50 27 WSW
03.08.2020 14:00:00 7,5 4,0 35 19 - - WSW
03.08.2020 13:00:00 7,1 3,8 24 13 - - SW
03.08.2020 12:00:00 7,1 5,0 29 16 - - WSW
03.08.2020 11:00:00 6,1 5,2 29 16 - - WSW
03.08.2020 10:00:00 5,4 5,4 31 17 - - WSW
03.08.2020 09:00:00 4,9 4,9 22 12 - - WSW
03.08.2020 08:00:00 4,4 4,4 28 15 - - WSW
03.08.2020 07:00:00 4,4 4,4 29 16 - - W
03.08.2020 06:00:00 4,3 4,3 26 14 - - WSW
03.08.2020 05:00:00 4,0 4,0 37 20 46 25 W
03.08.2020 04:00:00 4,8 4,8 21 11 - - WSW
03.08.2020 03:00:00 5,2 5,2 29 16 - - WSW
03.08.2020 02:00:00 5,3 5,3 29 16 - - WSW
03.08.2020 01:00:00 5,4 5,4 29 16 - - SW
03.08.2020 00:00:00 5,2 5,2 22 12 - - SW
02.08.2020 23:00:00 5,6 5,6 29 16 - - WSW
02.08.2020 22:00:00 5,4 5,4 28 15 - - W
02.08.2020 21:00:00 5,5 5,2 31 17 - - W

tt = Température de l'air
td = dewpoint
ff = Vitesse du vent
fx = gusts
dd = Direction du vent

stations d'obs. à proximité